• Join FlightAware (Why Join?)
  • Login
  • US Flag 
03:24PM EDT


 

Airport Tracker/Info


-or-


 

Live Flight TrackerFlight Track Log ✈ CES5863 ✈ 15-Jul-2013 ✈ ZUUU / CTU - ZUJZ / JZH

Flight Track Log - Related Links

Times and Time Zones

All times are in EDT time to prevent confusion due to time zone crossing. See the CES5863 flight status page for this flight to view local times or setup timezone preferences in your user account.

Time Position Orientation Groundspeed Altitude Reporting Facility
EDT Latitude Longitude Course Direction KTS MPH feet Rate Location/Type
11:14PM 30.5640 103.9400 320° Northwest 27 31  Level FlightAware
11:15PM 30.5680 103.9420 23° Northeast 82 94 2,520 Level FlightAware
11:15PM 30.5700 103.9430 23° Northeast 110 127 4,440 Level FlightAware
11:15PM 30.5920 103.9540 23° Northeast 159 183 2,900 3,780 Climbing FlightAware
11:16PM 30.6110 103.9630 22° Northeast 192 221 3,600 1,680 Climbing FlightAware
11:16PM 30.6370 103.9750 22° Northeast 222 255 4,400 1,620 Climbing FlightAware
11:16PM 30.6490 103.9810 23° Northeast 241 277 4,700 2,100 Climbing FlightAware
11:17PM 30.6800 103.9950 21° North 255 293 5,800 2,520 Climbing FlightAware
11:17PM 30.7110 104.0100 23° Northeast 263 303 7,100 2,760 Climbing FlightAware
11:18PM 30.7380 104.0230 22° Northeast 273 314 8,200 2,820 Climbing FlightAware
11:18PM 30.7670 104.0370 23° Northeast 276 318 9,400 2,820 Climbing FlightAware
11:19PM 30.8200 104.0630 23° Northeast 292 336 11,400 1,920 Climbing FlightAware
11:20PM 30.8750 104.0910 24° Northeast 354 407 12,100 1,680 Climbing FlightAware
11:20PM 30.9290 104.1430 40° Northeast 367 422 13,700 1,140 Climbing FlightAware
11:21PM 30.9850 104.2010 42° Northeast 365 420 13,800 720 Climbing FlightAware
11:22PM 31.0350 104.2550 43° Northeast 368 423 14,800 2,400 Climbing FlightAware
11:22PM 31.0900 104.3150 43° Northeast 370 426 17,200 2,700 Climbing FlightAware
11:23PM 31.1310 104.3590 43° Northeast 380 437 18,200 1,920 Climbing FlightAware
11:24PM 31.1920 104.4210 41° Northeast 399 459 19,700 2,100 Climbing FlightAware
11:24PM 31.2130 104.4300 20° North 398 458 20,200 3,000 Climbing FlightAware
11:25PM 31.2940 104.4290 359° North 389 448 22,500 2,340 Climbing FlightAware
11:25PM 31.3700 104.4250 357° North 391 450 23,600 780 Climbing FlightAware
11:26PM 31.4390 104.4220 358° North 391 450 23,600  Level FlightAware
11:27PM 31.5210 104.4180 358° North 391 450 23,600  Level FlightAware
11:27PM 31.5940 104.4150 358° North 391 450 23,600  Level FlightAware
11:28PM 31.6740 104.4110 358° North 392 451 23,600  Level FlightAware
11:29PM 31.7480 104.4070 357° North 393 452 23,600  Level FlightAware
11:30PM 31.8230 104.4040 358° North 393 452 23,600  Level FlightAware
11:30PM 31.9010 104.4000 358° North 393 452 23,600  Level FlightAware
11:31PM 31.9850 104.3960 358° North 395 455 23,600  Level FlightAware
11:32PM 32.0580 104.3930 358° North 394 453 23,600  Level FlightAware
11:32PM 32.1200 104.3900 358° North 393 452 23,600  Level FlightAware
11:33PM 32.1970 104.3860 357° North 393 452 23,600  Level FlightAware
11:34PM 32.2760 104.3770 354° North 389 448 23,600  Level FlightAware
11:34PM 32.3400 104.3480 339° North 389 448 23,600  Level FlightAware
11:35PM 32.4200 104.3160 341° North 398 458 23,600  Level FlightAware
11:36PM 32.4670 104.2950 339° North 388 447 23,600  Level FlightAware
11:36PM 32.4810 104.2800 318° Northwest 382 440 23,600  Level FlightAware
11:37PM 32.5360 104.2130 314° West 387 445 23,600 -240 Level FlightAware
11:37PM 32.5920 104.1450 314° West 374 430 23,300 -240 Descending FlightAware
11:38PM 32.6240 104.0950 307° West 374 430 23,300  Level FlightAware
11:39PM 32.6660 104.0280 307° West 374 430 23,300  Level FlightAware
11:39PM 32.6980 103.9780 307° West 374 430 23,300  Level FlightAware
11:40PM 32.7310 103.9260 307° West 374 430 23,300  Level FlightAware
11:41PM 32.7630 103.8760 307° West 374 430 23,300  Level FlightAware
11:43PM 32.8085 103.7828 300° West  Level Estimated
11:44PM 32.8314 103.7357 300° West  Level Estimated
11:45PM 32.8543 103.6887 300° West  Level Estimated
11:46PM 32.8570 103.6830 300° West  Level Estimated
11:47PM 32.8570 103.6830 North  Level Estimated
11:48PM 32.8570 103.6830 North  Level Estimated
11:49PM 32.8570 103.6830 North  Level Estimated
11:50PM 32.8570 103.6830 North  Level Estimated
11:51PM 32.8570 103.6830 North  Level Estimated
11:52PM 32.8570 103.6830 North  Level Estimated
11:53PM 32.8570 103.6830 North  Level Estimated
11:54PM 32.8570 103.6830 North  Level Estimated
11:55PM 32.8570 103.6830 North  Level Estimated
11:56PM 32.8570 103.6830 North  Level Estimated
11:57PM 32.8570 103.6830 North  Level Estimated
11:58PM 32.8570 103.6830 North  Level Estimated
11:59PM 32.8570 103.6830 North  Level Estimated
12:00AM 32.8570 103.6830 North  Level Estimated
12:01AM 32.8570 103.6830 North  Level Estimated
12:02AM 32.8570 103.6830 North  Level Estimated
12:03AM 32.8570 103.6830 North  Level Estimated
12:04AM 32.8570 103.6830 North  Level Estimated
12:05AM 32.8570 103.6830 North  Level Estimated
12:06AM 32.8570 103.6830 North  Level Estimated
12:07AM 32.8570 103.6830 North  Level Estimated
12:08AM 32.8570 103.6830 North  Level Estimated
12:09AM 32.8570 103.6830 North  Level Estimated
12:10AM 32.8570 103.6830 North  Level Estimated
12:11AM 32.8570 103.6830 North  Level Estimated
12:12AM 32.8570 103.6830 North  Level Estimated
12:13AM 32.8570 103.6830 North  Level Estimated
12:14AM 32.8570 103.6830 North  Level Estimated
12:15AM 32.8570 103.6830 North  Level Estimated
12:16AM 32.8570 103.6830 North  Level Estimated
12:17AM 32.8570 103.6830 North  Level Estimated
12:18AM 32.8570 103.6830 North  Level Estimated
12:19AM 32.8570 103.6830 North  Level Estimated
12:20AM 32.8570 103.6830 North  Level Estimated